Terminal Aerodrome Forecast
Issued by NWS Louisville, KY

Home | Current Version | Previous Version | Text Only | Print | Product List | Glossary On
Versions: 1 2 3 4 5 6 7 8 9 10 11 12 13 14 15 16
766
FTUS43 KLMK 041429 AAA
TAFBWG
TAF AMD
KBWG 041429Z 0414/0512 31007KT P6SM OVC035
      TEMPO 0414/0416 BKN028
     FM041800 30006KT P6SM BKN035
     FM050300 00000KT P6SM SKC=

USA.gov is the U.S. government's official web portal to all federal, state and local government web resources and services.